sensor_id;sensor_type;location;lat;lon;timestamp;P1;durP1;ratioP1;P2;durP2;ratioP2
55025;SDS011;40925;45.666;18.994;2022-12-05T00:00:53;51.83;;;28.45;;
55025;SDS011;40925;45.666;18.994;2022-12-05T00:03:19;65.70;;;34.08;;
55025;SDS011;40925;45.666;18.994;2022-12-05T00:05:45;81.00;;;40.20;;
55025;SDS011;40925;45.666;18.994;2022-12-05T00:08:11;140.70;;;61.67;;
55025;SDS011;40925;45.666;18.994;2022-12-05T00:10:38;120.55;;;54.22;;
55025;SDS011;40925;45.666;18.994;2022-12-05T00:13:04;125.07;;;56.53;;
55025;SDS011;40925;45.666;18.994;2022-12-05T00:15:30;113.53;;;53.70;;
55025;SDS011;40925;45.666;18.994;2022-12-05T00:17:56;117.47;;;53.60;;
55025;SDS011;40925;45.666;18.994;2022-12-05T00:20:22;83.82;;;42.58;;
55025;SDS011;40925;45.666;18.994;2022-12-05T00:22:48;63.65;;;34.17;;
55025;SDS011;40925;45.666;18.994;2022-12-05T00:25:14;56.95;;;31.27;;
55025;SDS011;40925;45.666;18.994;2022-12-05T00:27:40;57.22;;;32.17;;
55025;SDS011;40925;45.666;18.994;2022-12-05T00:30:06;61.88;;;31.73;;
55025;SDS011;40925;45.666;18.994;2022-12-05T00:32:32;57.45;;;32.42;;
55025;SDS011;40925;45.666;18.994;2022-12-05T00:34:58;67.38;;;35.67;;
55025;SDS011;40925;45.666;18.994;2022-12-05T00:37:24;71.60;;;37.38;;
55025;SDS011;40925;45.666;18.994;2022-12-05T00:39:50;68.88;;;36.42;;
55025;SDS011;40925;45.666;18.994;2022-12-05T00:42:16;68.00;;;35.33;;
55025;SDS011;40925;45.666;18.994;2022-12-05T00:44:42;70.22;;;33.83;;
55025;SDS011;40925;45.666;18.994;2022-12-05T00:47:08;69.95;;;35.33;;
55025;SDS011;40925;45.666;18.994;2022-12-05T00:49:34;64.90;;;34.08;;
55025;SDS011;40925;45.666;18.994;2022-12-05T00:52:00;113.80;;;49.88;;
55025;SDS011;40925;45.666;18.994;2022-12-05T00:54:26;184.68;;;75.97;;
55025;SDS011;40925;45.666;18.994;2022-12-05T00:56:52;159.32;;;67.07;;
55025;SDS011;40925;45.666;18.994;2022-12-05T00:59:20;131.30;;;55.50;;
55025;SDS011;40925;45.666;18.994;2022-12-05T01:01:47;108.90;;;49.08;;
55025;SDS011;40925;45.666;18.994;2022-12-05T01:04:18;103.55;;;48.08;;
55025;SDS011;40925;45.666;18.994;2022-12-05T01:06:47;107.75;;;48.83;;
55025;SDS011;40925;45.666;18.994;2022-12-05T01:09:14;106.97;;;49.42;;
55025;SDS011;40925;45.666;18.994;2022-12-05T01:11:41;84.43;;;42.33;;
55025;SDS011;40925;45.666;18.994;2022-12-05T01:14:17;70.00;;;36.55;;
55025;SDS011;40925;45.666;18.994;2022-12-05T01:16:45;57.40;;;31.58;;
55025;SDS011;40925;45.666;18.994;2022-12-05T01:19:33;46.45;;;25.00;;
55025;SDS011;40925;45.666;18.994;2022-12-05T01:21:58;46.53;;;24.35;;
55025;SDS011;40925;45.666;18.994;2022-12-05T01:24:24;40.83;;;21.83;;
55025;SDS011;40925;45.666;18.994;2022-12-05T01:26:50;38.88;;;21.52;;
55025;SDS011;40925;45.666;18.994;2022-12-05T01:29:18;38.85;;;21.13;;
55025;SDS011;40925;45.666;18.994;2022-12-05T01:31:44;36.40;;;20.23;;
55025;SDS011;40925;45.666;18.994;2022-12-05T01:34:11;38.63;;;21.08;;
55025;SDS011;40925;45.666;18.994;2022-12-05T01:36:38;39.58;;;22.23;;
55025;SDS011;40925;45.666;18.994;2022-12-05T01:39:05;36.58;;;20.92;;
55025;SDS011;40925;45.666;18.994;2022-12-05T01:41:32;34.22;;;19.98;;
55025;SDS011;40925;45.666;18.994;2022-12-05T01:44:05;33.50;;;18.55;;
55025;SDS011;40925;45.666;18.994;2022-12-05T01:46:47;32.03;;;17.45;;
55025;SDS011;40925;45.666;18.994;2022-12-05T01:49:16;35.15;;;19.13;;
55025;SDS011;40925;45.666;18.994;2022-12-05T01:51:57;36.00;;;18.65;;
55025;SDS011;40925;45.666;18.994;2022-12-05T01:54:25;32.88;;;17.40;;
55025;SDS011;40925;45.666;18.994;2022-12-05T01:56:55;35.97;;;17.92;;
55025;SDS011;40925;45.666;18.994;2022-12-05T01:59:24;36.05;;;18.50;;
55025;SDS011;40925;45.666;18.994;2022-12-05T02:01:52;36.58;;;17.98;;
55025;SDS011;40925;45.666;18.994;2022-12-05T02:04:18;37.33;;;18.52;;
55025;SDS011;40925;45.666;18.994;2022-12-05T02:06:44;42.45;;;19.55;;
55025;SDS011;40925;45.666;18.994;2022-12-05T02:09:11;40.17;;;18.15;;
55025;SDS011;40925;45.666;18.994;2022-12-05T02:11:40;35.28;;;17.15;;
55025;SDS011;40925;45.666;18.994;2022-12-05T02:22:17;31.88;;;17.27;;
55025;SDS011;40925;45.666;18.994;2022-12-05T02:30:11;32.30;;;17.92;;
55025;SDS011;40925;45.666;18.994;2022-12-05T02:35:24;30.08;;;17.45;;
55025;SDS011;40925;45.666;18.994;2022-12-05T02:43:15;41.58;;;20.50;;
55025;SDS011;40925;45.666;18.994;2022-12-05T02:45:42;39.65;;;21.10;;
55025;SDS011;40925;45.666;18.994;2022-12-05T02:48:11;35.83;;;18.67;;
55025;SDS011;40925;45.666;18.994;2022-12-05T02:50:39;36.35;;;18.98;;
55025;SDS011;40925;45.666;18.994;2022-12-05T02:53:07;35.92;;;18.55;;
55025;SDS011;40925;45.666;18.994;2022-12-05T02:55:37;29.55;;;16.73;;
55025;SDS011;40925;45.666;18.994;2022-12-05T02:58:06;30.88;;;17.38;;
55025;SDS011;40925;45.666;18.994;2022-12-05T03:00:39;37.40;;;19.40;;
55025;SDS011;40925;45.666;18.994;2022-12-05T03:03:12;35.53;;;18.17;;
55025;SDS011;40925;45.666;18.994;2022-12-05T03:08:37;34.08;;;17.42;;
55025;SDS011;40925;45.666;18.994;2022-12-05T03:11:07;34.00;;;18.33;;
55025;SDS011;40925;45.666;18.994;2022-12-05T03:13:45;32.15;;;17.45;;
55025;SDS011;40925;45.666;18.994;2022-12-05T03:16:23;35.00;;;17.25;;
55025;SDS011;40925;45.666;18.994;2022-12-05T03:19:17;31.98;;;16.40;;
55025;SDS011;40925;45.666;18.994;2022-12-05T03:21:48;28.92;;;16.27;;
55025;SDS011;40925;45.666;18.994;2022-12-05T03:24:19;32.40;;;16.65;;
55025;SDS011;40925;45.666;18.994;2022-12-05T03:31:53;30.02;;;17.08;;
55025;SDS011;40925;45.666;18.994;2022-12-05T03:37:12;29.52;;;15.93;;
55025;SDS011;40925;45.666;18.994;2022-12-05T03:40:02;30.67;;;15.30;;
55025;SDS011;40925;45.666;18.994;2022-12-05T03:43:01;28.15;;;15.40;;
55025;SDS011;40925;45.666;18.994;2022-12-05T03:51:30;22.52;;;12.68;;
55025;SDS011;40925;45.666;18.994;2022-12-05T03:54:11;23.98;;;12.65;;
55025;SDS011;40925;45.666;18.994;2022-12-05T03:56:40;25.17;;;13.55;;
55025;SDS011;40925;45.666;18.994;2022-12-05T03:59:15;21.65;;;13.32;;
55025;SDS011;40925;45.666;18.994;2022-12-05T04:01:51;24.08;;;13.52;;
55025;SDS011;40925;45.666;18.994;2022-12-05T04:04:38;24.02;;;14.95;;
55025;SDS011;40925;45.666;18.994;2022-12-05T04:07:29;21.08;;;13.45;;
55025;SDS011;40925;45.666;18.994;2022-12-05T04:10:01;22.85;;;12.45;;
55025;SDS011;40925;45.666;18.994;2022-12-05T04:12:31;20.35;;;11.98;;
55025;SDS011;40925;45.666;18.994;2022-12-05T04:15:00;19.73;;;11.63;;
55025;SDS011;40925;45.666;18.994;2022-12-05T04:20:10;24.67;;;15.20;;
55025;SDS011;40925;45.666;18.994;2022-12-05T04:22:55;24.92;;;15.55;;
55025;SDS011;40925;45.666;18.994;2022-12-05T04:25:21;28.00;;;17.33;;
55025;SDS011;40925;45.666;18.994;2022-12-05T04:30:42;26.77;;;16.02;;
55025;SDS011;40925;45.666;18.994;2022-12-05T04:33:19;23.13;;;13.32;;
55025;SDS011;40925;45.666;18.994;2022-12-05T04:36:05;22.15;;;12.20;;
55025;SDS011;40925;45.666;18.994;2022-12-05T04:39:00;21.20;;;11.73;;
55025;SDS011;40925;45.666;18.994;2022-12-05T04:44:09;26.88;;;15.88;;
55025;SDS011;40925;45.666;18.994;2022-12-05T04:46:38;27.02;;;14.18;;
55025;SDS011;40925;45.666;18.994;2022-12-05T04:49:08;28.42;;;14.45;;
55025;SDS011;40925;45.666;18.994;2022-12-05T04:51:36;25.67;;;14.02;;
55025;SDS011;40925;45.666;18.994;2022-12-05T04:54:06;24.75;;;13.90;;
55025;SDS011;40925;45.666;18.994;2022-12-05T04:56:39;22.88;;;13.25;;
55025;SDS011;40925;45.666;18.994;2022-12-05T04:59:08;24.48;;;13.55;;
55025;SDS011;40925;45.666;18.994;2022-12-05T05:01:41;24.80;;;14.10;;
55025;SDS011;40925;45.666;18.994;2022-12-05T05:04:13;24.45;;;13.10;;
55025;SDS011;40925;45.666;18.994;2022-12-05T05:06:45;26.83;;;14.65;;
55025;SDS011;40925;45.666;18.994;2022-12-05T05:09:11;24.77;;;14.02;;
55025;SDS011;40925;45.666;18.994;2022-12-05T05:11:37;24.10;;;14.18;;
55025;SDS011;40925;45.666;18.994;2022-12-05T05:14:03;32.33;;;18.27;;
55025;SDS011;40925;45.666;18.994;2022-12-05T05:16:33;28.92;;;17.38;;
55025;SDS011;40925;45.666;18.994;2022-12-05T05:19:00;29.38;;;17.48;;
55025;SDS011;40925;45.666;18.994;2022-12-05T05:21:27;27.75;;;16.63;;
55025;SDS011;40925;45.666;18.994;2022-12-05T05:23:54;27.05;;;16.05;;
55025;SDS011;40925;45.666;18.994;2022-12-05T05:26:21;29.05;;;16.70;;
55025;SDS011;40925;45.666;18.994;2022-12-05T05:28:47;29.48;;;17.42;;
55025;SDS011;40925;45.666;18.994;2022-12-05T05:31:14;30.08;;;17.20;;
55025;SDS011;40925;45.666;18.994;2022-12-05T05:33:40;27.50;;;16.58;;
55025;SDS011;40925;45.666;18.994;2022-12-05T05:36:08;30.05;;;18.05;;
55025;SDS011;40925;45.666;18.994;2022-12-05T05:38:42;31.38;;;18.50;;
55025;SDS011;40925;45.666;18.994;2022-12-05T05:41:13;29.50;;;17.73;;
55025;SDS011;40925;45.666;18.994;2022-12-05T05:43:43;40.17;;;24.27;;
55025;SDS011;40925;45.666;18.994;2022-12-05T05:46:10;41.50;;;24.02;;
55025;SDS011;40925;45.666;18.994;2022-12-05T05:48:37;52.53;;;30.80;;
55025;SDS011;40925;45.666;18.994;2022-12-05T05:51:03;57.05;;;31.85;;
55025;SDS011;40925;45.666;18.994;2022-12-05T05:53:30;42.05;;;22.70;;
55025;SDS011;40925;45.666;18.994;2022-12-05T05:55:56;39.35;;;22.00;;
55025;SDS011;40925;45.666;18.994;2022-12-05T05:58:22;52.95;;;25.10;;
55025;SDS011;40925;45.666;18.994;2022-12-05T06:00:47;75.20;;;40.17;;
55025;SDS011;40925;45.666;18.994;2022-12-05T06:03:13;70.15;;;37.03;;
55025;SDS011;40925;45.666;18.994;2022-12-05T06:05:39;86.57;;;45.58;;
55025;SDS011;40925;45.666;18.994;2022-12-05T06:08:04;71.95;;;39.55;;
55025;SDS011;40925;45.666;18.994;2022-12-05T06:10:30;62.50;;;31.75;;
55025;SDS011;40925;45.666;18.994;2022-12-05T06:12:56;66.00;;;35.92;;
55025;SDS011;40925;45.666;18.994;2022-12-05T06:15:24;93.97;;;49.80;;
55025;SDS011;40925;45.666;18.994;2022-12-05T06:17:49;92.88;;;48.88;;
55025;SDS011;40925;45.666;18.994;2022-12-05T06:20:15;64.63;;;34.47;;
55025;SDS011;40925;45.666;18.994;2022-12-05T06:22:41;52.95;;;29.23;;
55025;SDS011;40925;45.666;18.994;2022-12-05T06:25:07;46.03;;;26.58;;
55025;SDS011;40925;45.666;18.994;2022-12-05T06:27:33;46.22;;;25.45;;
55025;SDS011;40925;45.666;18.994;2022-12-05T06:29:59;41.58;;;23.58;;
55025;SDS011;40925;45.666;18.994;2022-12-05T06:32:26;45.58;;;26.38;;
55025;SDS011;40925;45.666;18.994;2022-12-05T06:34:53;36.03;;;21.83;;
55025;SDS011;40925;45.666;18.994;2022-12-05T06:37:19;37.13;;;21.83;;
55025;SDS011;40925;45.666;18.994;2022-12-05T06:39:44;51.78;;;29.02;;
55025;SDS011;40925;45.666;18.994;2022-12-05T06:42:10;38.70;;;22.48;;
55025;SDS011;40925;45.666;18.994;2022-12-05T06:44:36;25.83;;;15.45;;
55025;SDS011;40925;45.666;18.994;2022-12-05T06:47:02;21.63;;;13.27;;
55025;SDS011;40925;45.666;18.994;2022-12-05T06:49:27;27.77;;;15.82;;
55025;SDS011;40925;45.666;18.994;2022-12-05T06:51:56;24.30;;;14.18;;
55025;SDS011;40925;45.666;18.994;2022-12-05T06:54:23;35.97;;;20.33;;
55025;SDS011;40925;45.666;18.994;2022-12-05T06:56:49;47.60;;;26.33;;
55025;SDS011;40925;45.666;18.994;2022-12-05T06:59:15;44.30;;;26.33;;
55025;SDS011;40925;45.666;18.994;2022-12-05T07:01:41;38.17;;;23.35;;
55025;SDS011;40925;45.666;18.994;2022-12-05T07:04:14;36.03;;;22.10;;
55025;SDS011;40925;45.666;18.994;2022-12-05T07:06:44;42.83;;;25.60;;
55025;SDS011;40925;45.666;18.994;2022-12-05T07:09:11;43.08;;;25.67;;
55025;SDS011;40925;45.666;18.994;2022-12-05T07:11:37;36.72;;;22.50;;
55025;SDS011;40925;45.666;18.994;2022-12-05T07:14:03;37.13;;;22.55;;
55025;SDS011;40925;45.666;18.994;2022-12-05T07:16:29;67.88;;;36.17;;
55025;SDS011;40925;45.666;18.994;2022-12-05T07:18:55;155.25;;;72.25;;
55025;SDS011;40925;45.666;18.994;2022-12-05T07:21:22;86.18;;;44.47;;
55025;SDS011;40925;45.666;18.994;2022-12-05T07:23:48;92.07;;;46.80;;
55025;SDS011;40925;45.666;18.994;2022-12-05T07:26:15;94.40;;;51.90;;
55025;SDS011;40925;45.666;18.994;2022-12-05T07:28:43;115.50;;;65.78;;
55025;SDS011;40925;45.666;18.994;2022-12-05T07:31:10;114.50;;;62.05;;
55025;SDS011;40925;45.666;18.994;2022-12-05T07:33:39;114.30;;;68.32;;
55025;SDS011;40925;45.666;18.994;2022-12-05T07:36:06;52.85;;;33.97;;
55025;SDS011;40925;45.666;18.994;2022-12-05T07:38:34;15.27;;;9.93;;
55025;SDS011;40925;45.666;18.994;2022-12-05T07:41:03;11.98;;;7.60;;
55025;SDS011;40925;45.666;18.994;2022-12-05T07:43:30;10.52;;;6.63;;
55025;SDS011;40925;45.666;18.994;2022-12-05T07:45:59;9.55;;;6.75;;
55025;SDS011;40925;45.666;18.994;2022-12-05T07:48:28;11.23;;;8.27;;
55025;SDS011;40925;45.666;18.994;2022-12-05T07:50:57;13.82;;;10.75;;
55025;SDS011;40925;45.666;18.994;2022-12-05T07:53:24;14.45;;;10.93;;
55025;SDS011;40925;45.666;18.994;2022-12-05T07:55:50;14.05;;;10.57;;
55025;SDS011;40925;45.666;18.994;2022-12-05T07:58:15;17.17;;;12.60;;
55025;SDS011;40925;45.666;18.994;2022-12-05T08:00:41;17.17;;;13.25;;
55025;SDS011;40925;45.666;18.994;2022-12-05T08:03:06;14.70;;;10.75;;
55025;SDS011;40925;45.666;18.994;2022-12-05T08:05:32;13.57;;;9.25;;
55025;SDS011;40925;45.666;18.994;2022-12-05T08:07:58;13.27;;;8.57;;
55025;SDS011;40925;45.666;18.994;2022-12-05T08:10:23;12.82;;;9.43;;
55025;SDS011;40925;45.666;18.994;2022-12-05T08:12:49;13.05;;;8.43;;
55025;SDS011;40925;45.666;18.994;2022-12-05T08:15:15;13.18;;;8.20;;
55025;SDS011;40925;45.666;18.994;2022-12-05T08:17:40;18.15;;;15.00;;
55025;SDS011;40925;45.666;18.994;2022-12-05T08:20:06;12.02;;;9.48;;
55025;SDS011;40925;45.666;18.994;2022-12-05T08:22:32;11.93;;;9.07;;
55025;SDS011;40925;45.666;18.994;2022-12-05T08:24:58;10.82;;;8.05;;
55025;SDS011;40925;45.666;18.994;2022-12-05T08:27:24;12.32;;;7.95;;
55025;SDS011;40925;45.666;18.994;2022-12-05T08:29:49;9.43;;;6.70;;
55025;SDS011;40925;45.666;18.994;2022-12-05T08:32:15;12.75;;;9.52;;
55025;SDS011;40925;45.666;18.994;2022-12-05T08:34:40;8.15;;;6.20;;
55025;SDS011;40925;45.666;18.994;2022-12-05T08:37:06;43.00;;;21.88;;
55025;SDS011;40925;45.666;18.994;2022-12-05T08:39:32;11.35;;;7.85;;
55025;SDS011;40925;45.666;18.994;2022-12-05T08:41:58;25.00;;;17.45;;
55025;SDS011;40925;45.666;18.994;2022-12-05T08:44:23;15.18;;;9.73;;
55025;SDS011;40925;45.666;18.994;2022-12-05T08:46:49;11.25;;;7.30;;
55025;SDS011;40925;45.666;18.994;2022-12-05T08:49:16;14.02;;;8.55;;
55025;SDS011;40925;45.666;18.994;2022-12-05T08:51:42;14.80;;;9.88;;
55025;SDS011;40925;45.666;18.994;2022-12-05T08:54:08;20.42;;;12.85;;
55025;SDS011;40925;45.666;18.994;2022-12-05T08:56:34;21.42;;;12.63;;
55025;SDS011;40925;45.666;18.994;2022-12-05T08:59:00;81.30;;;52.00;;
55025;SDS011;40925;45.666;18.994;2022-12-05T09:01:28;35.22;;;25.33;;
55025;SDS011;40925;45.666;18.994;2022-12-05T09:03:56;18.50;;;11.52;;
55025;SDS011;40925;45.666;18.994;2022-12-05T09:06:24;15.32;;;10.05;;
55025;SDS011;40925;45.666;18.994;2022-12-05T09:08:55;19.67;;;13.68;;
55025;SDS011;40925;45.666;18.994;2022-12-05T09:11:27;18.05;;;10.93;;
55025;SDS011;40925;45.666;18.994;2022-12-05T09:13:54;32.22;;;19.73;;
55025;SDS011;40925;45.666;18.994;2022-12-05T09:16:22;18.67;;;11.68;;
55025;SDS011;40925;45.666;18.994;2022-12-05T09:18:51;16.77;;;11.32;;
55025;SDS011;40925;45.666;18.994;2022-12-05T09:21:18;29.90;;;20.23;;
55025;SDS011;40925;45.666;18.994;2022-12-05T09:23:46;22.08;;;15.18;;
55025;SDS011;40925;45.666;18.994;2022-12-05T09:26:13;18.10;;;11.73;;
55025;SDS011;40925;45.666;18.994;2022-12-05T09:28:40;35.92;;;24.50;;
55025;SDS011;40925;45.666;18.994;2022-12-05T09:31:11;13.38;;;9.02;;
55025;SDS011;40925;45.666;18.994;2022-12-05T09:33:39;10.93;;;7.40;;
55025;SDS011;40925;45.666;18.994;2022-12-05T09:36:05;27.20;;;14.70;;
55025;SDS011;40925;45.666;18.994;2022-12-05T09:38:33;9.57;;;6.47;;
55025;SDS011;40925;45.666;18.994;2022-12-05T09:41:03;15.45;;;9.77;;
55025;SDS011;40925;45.666;18.994;2022-12-05T09:49:11;20.00;;;12.90;;
55025;SDS011;40925;45.666;18.994;2022-12-05T09:51:39;11.27;;;7.00;;
55025;SDS011;40925;45.666;18.994;2022-12-05T09:54:10;10.73;;;7.53;;
55025;SDS011;40925;45.666;18.994;2022-12-05T09:56:37;9.85;;;6.53;;
55025;SDS011;40925;45.666;18.994;2022-12-05T09:59:07;10.05;;;6.10;;
55025;SDS011;40925;45.666;18.994;2022-12-05T10:01:43;9.10;;;6.28;;
55025;SDS011;40925;45.666;18.994;2022-12-05T10:07:24;18.20;;;12.00;;
55025;SDS011;40925;45.666;18.994;2022-12-05T10:12:52;10.98;;;7.65;;
55025;SDS011;40925;45.666;18.994;2022-12-05T10:15:36;13.20;;;8.77;;
55025;SDS011;40925;45.666;18.994;2022-12-05T10:20:44;10.93;;;8.40;;
55025;SDS011;40925;45.666;18.994;2022-12-05T10:23:26;12.55;;;7.10;;
55025;SDS011;40925;45.666;18.994;2022-12-05T10:26:07;9.27;;;6.70;;
55025;SDS011;40925;45.666;18.994;2022-12-05T10:28:38;10.35;;;7.18;;
55025;SDS011;40925;45.666;18.994;2022-12-05T10:31:07;10.68;;;8.40;;
55025;SDS011;40925;45.666;18.994;2022-12-05T10:33:38;8.18;;;6.50;;
55025;SDS011;40925;45.666;18.994;2022-12-05T10:36:11;9.77;;;7.25;;
55025;SDS011;40925;45.666;18.994;2022-12-05T10:38:37;10.02;;;7.53;;
55025;SDS011;40925;45.666;18.994;2022-12-05T10:41:09;12.05;;;10.32;;
55025;SDS011;40925;45.666;18.994;2022-12-05T10:43:37;8.80;;;7.20;;
55025;SDS011;40925;45.666;18.994;2022-12-05T10:46:06;10.32;;;6.65;;
55025;SDS011;40925;45.666;18.994;2022-12-05T10:48:36;8.27;;;6.97;;
55025;SDS011;40925;45.666;18.994;2022-12-05T10:51:04;10.18;;;8.80;;
55025;SDS011;40925;45.666;18.994;2022-12-05T10:53:44;13.90;;;9.00;;
55025;SDS011;40925;45.666;18.994;2022-12-05T10:58:59;10.65;;;7.30;;
55025;SDS011;40925;45.666;18.994;2022-12-05T11:01:24;10.20;;;8.07;;
55025;SDS011;40925;45.666;18.994;2022-12-05T11:08:51;11.77;;;8.35;;
55025;SDS011;40925;45.666;18.994;2022-12-05T11:11:20;11.05;;;8.68;;
55025;SDS011;40925;45.666;18.994;2022-12-05T11:13:56;16.50;;;11.20;;
55025;SDS011;40925;45.666;18.994;2022-12-05T11:16:34;13.18;;;10.25;;
55025;SDS011;40925;45.666;18.994;2022-12-05T11:19:21;9.48;;;7.38;;
55025;SDS011;40925;45.666;18.994;2022-12-05T11:21:53;10.73;;;8.20;;
55025;SDS011;40925;45.666;18.994;2022-12-05T11:26:55;10.40;;;7.53;;
55025;SDS011;40925;45.666;18.994;2022-12-05T11:29:35;10.98;;;8.80;;
55025;SDS011;40925;45.666;18.994;2022-12-05T11:32:03;9.68;;;8.35;;
55025;SDS011;40925;45.666;18.994;2022-12-05T11:34:38;10.02;;;7.40;;
55025;SDS011;40925;45.666;18.994;2022-12-05T11:37:12;13.30;;;9.20;;
55025;SDS011;40925;45.666;18.994;2022-12-05T11:39:42;10.65;;;8.60;;
55025;SDS011;40925;45.666;18.994;2022-12-05T11:50:54;24.27;;;16.83;;
55025;SDS011;40925;45.666;18.994;2022-12-05T12:17:28;16.10;;;12.57;;
55025;SDS011;40925;45.666;18.994;2022-12-05T12:33:44;10.23;;;8.20;;
55025;SDS011;40925;45.666;18.994;2022-12-05T12:36:22;15.68;;;10.70;;
55025;SDS011;40925;45.666;18.994;2022-12-05T12:44:42;10.63;;;7.32;;
55025;SDS011;40925;45.666;18.994;2022-12-05T13:03:50;15.30;;;9.50;;
55025;SDS011;40925;45.666;18.994;2022-12-05T13:11:44;14.55;;;10.05;;
55025;SDS011;40925;45.666;18.994;2022-12-05T13:14:12;12.68;;;9.88;;
55025;SDS011;40925;45.666;18.994;2022-12-05T13:16:42;12.05;;;9.65;;
55025;SDS011;40925;45.666;18.994;2022-12-05T13:22:06;15.77;;;10.63;;
55025;SDS011;40925;45.666;18.994;2022-12-05T13:24:33;16.60;;;12.20;;
55025;SDS011;40925;45.666;18.994;2022-12-05T13:27:00;16.55;;;11.82;;
55025;SDS011;40925;45.666;18.994;2022-12-05T13:37:30;12.98;;;9.63;;
55025;SDS011;40925;45.666;18.994;2022-12-05T13:40:23;16.23;;;10.95;;
55025;SDS011;40925;45.666;18.994;2022-12-05T13:43:08;14.98;;;10.15;;
55025;SDS011;40925;45.666;18.994;2022-12-05T13:45:36;18.02;;;10.38;;
55025;SDS011;40925;45.666;18.994;2022-12-05T13:51:05;19.42;;;12.98;;
55025;SDS011;40925;45.666;18.994;2022-12-05T13:53:39;22.90;;;12.82;;
55025;SDS011;40925;45.666;18.994;2022-12-05T14:17:23;18.42;;;11.30;;
55025;SDS011;40925;45.666;18.994;2022-12-05T14:22:51;18.75;;;11.85;;
55025;SDS011;40925;45.666;18.994;2022-12-05T14:36:55;24.77;;;12.38;;
55025;SDS011;40925;45.666;18.994;2022-12-05T14:39:43;99.85;;;48.13;;
55025;SDS011;40925;45.666;18.994;2022-12-05T14:44:54;77.13;;;39.42;;
55025;SDS011;40925;45.666;18.994;2022-12-05T14:47:24;80.18;;;39.72;;
55025;SDS011;40925;45.666;18.994;2022-12-05T14:50:00;61.58;;;32.85;;
55025;SDS011;40925;45.666;18.994;2022-12-05T14:55:54;57.17;;;31.50;;
55025;SDS011;40925;45.666;18.994;2022-12-05T14:58:39;53.10;;;29.90;;
55025;SDS011;40925;45.666;18.994;2022-12-05T15:06:27;98.43;;;47.08;;
55025;SDS011;40925;45.666;18.994;2022-12-05T15:08:54;103.93;;;52.28;;
55025;SDS011;40925;45.666;18.994;2022-12-05T15:11:23;101.00;;;50.63;;
55025;SDS011;40925;45.666;18.994;2022-12-05T15:13:57;88.28;;;46.05;;
55025;SDS011;40925;45.666;18.994;2022-12-05T15:16:45;110.30;;;55.95;;
55025;SDS011;40925;45.666;18.994;2022-12-05T15:19:17;109.65;;;56.78;;
55025;SDS011;40925;45.666;18.994;2022-12-05T15:21:54;129.70;;;64.45;;
55025;SDS011;40925;45.666;18.994;2022-12-05T15:24:22;120.32;;;60.55;;
55025;SDS011;40925;45.666;18.994;2022-12-05T15:26:49;138.98;;;69.45;;
55025;SDS011;40925;45.666;18.994;2022-12-05T15:42:46;121.30;;;57.95;;
55025;SDS011;40925;45.666;18.994;2022-12-05T15:50:11;95.53;;;49.75;;
55025;SDS011;40925;45.666;18.994;2022-12-05T15:52:47;77.78;;;43.00;;
55025;SDS011;40925;45.666;18.994;2022-12-05T15:55:19;67.43;;;38.70;;
55025;SDS011;40925;45.666;18.994;2022-12-05T15:57:52;104.70;;;53.83;;
55025;SDS011;40925;45.666;18.994;2022-12-05T16:00:23;91.65;;;48.55;;
55025;SDS011;40925;45.666;18.994;2022-12-05T16:05:35;104.88;;;58.47;;
55025;SDS011;40925;45.666;18.994;2022-12-05T16:08:10;78.40;;;44.05;;
55025;SDS011;40925;45.666;18.994;2022-12-05T16:10:36;99.40;;;52.33;;
55025;SDS011;40925;45.666;18.994;2022-12-05T16:13:05;137.35;;;71.35;;
55025;SDS011;40925;45.666;18.994;2022-12-05T16:18:18;146.57;;;76.72;;
55025;SDS011;40925;45.666;18.994;2022-12-05T16:20:54;139.48;;;71.15;;
55025;SDS011;40925;45.666;18.994;2022-12-05T16:23:25;142.70;;;72.38;;
55025;SDS011;40925;45.666;18.994;2022-12-05T16:26:18;142.98;;;73.53;;
55025;SDS011;40925;45.666;18.994;2022-12-05T16:28:45;137.98;;;69.18;;
55025;SDS011;40925;45.666;18.994;2022-12-05T16:31:21;149.85;;;74.20;;
55025;SDS011;40925;45.666;18.994;2022-12-05T16:33:57;140.70;;;68.75;;
55025;SDS011;40925;45.666;18.994;2022-12-05T16:36:23;134.23;;;65.60;;
55025;SDS011;40925;45.666;18.994;2022-12-05T16:38:49;131.73;;;66.15;;
55025;SDS011;40925;45.666;18.994;2022-12-05T16:41:30;133.30;;;64.93;;
55025;SDS011;40925;45.666;18.994;2022-12-05T16:43:57;114.22;;;60.17;;
55025;SDS011;40925;45.666;18.994;2022-12-05T16:51:52;185.00;;;93.57;;
55025;SDS011;40925;45.666;18.994;2022-12-05T16:54:36;264.73;;;128.38;;
55025;SDS011;40925;45.666;18.994;2022-12-05T16:57:02;196.63;;;102.53;;
55025;SDS011;40925;45.666;18.994;2022-12-05T16:59:33;143.65;;;75.15;;
55025;SDS011;40925;45.666;18.994;2022-12-05T17:02:09;97.30;;;55.42;;
55025;SDS011;40925;45.666;18.994;2022-12-05T17:04:36;112.45;;;68.15;;
55025;SDS011;40925;45.666;18.994;2022-12-05T17:07:02;101.20;;;59.85;;
55025;SDS011;40925;45.666;18.994;2022-12-05T17:09:29;80.95;;;41.53;;
55025;SDS011;40925;45.666;18.994;2022-12-05T17:11:59;75.35;;;39.28;;
55025;SDS011;40925;45.666;18.994;2022-12-05T17:14:31;78.40;;;38.58;;
55025;SDS011;40925;45.666;18.994;2022-12-05T17:16:57;69.95;;;39.38;;
55025;SDS011;40925;45.666;18.994;2022-12-05T17:19:23;78.03;;;41.22;;
55025;SDS011;40925;45.666;18.994;2022-12-05T17:21:48;71.07;;;38.72;;
55025;SDS011;40925;45.666;18.994;2022-12-05T17:24:15;66.05;;;36.35;;
55025;SDS011;40925;45.666;18.994;2022-12-05T17:26:41;71.40;;;39.05;;
55025;SDS011;40925;45.666;18.994;2022-12-05T17:29:07;75.22;;;36.83;;
55025;SDS011;40925;45.666;18.994;2022-12-05T17:31:34;69.18;;;37.25;;
55025;SDS011;40925;45.666;18.994;2022-12-05T17:34:00;68.35;;;35.45;;
55025;SDS011;40925;45.666;18.994;2022-12-05T17:36:26;65.00;;;34.47;;
55025;SDS011;40925;45.666;18.994;2022-12-05T17:38:52;62.17;;;32.63;;
55025;SDS011;40925;45.666;18.994;2022-12-05T17:41:20;60.13;;;31.17;;
55025;SDS011;40925;45.666;18.994;2022-12-05T17:43:48;59.40;;;31.55;;
55025;SDS011;40925;45.666;18.994;2022-12-05T17:46:15;56.53;;;30.00;;
55025;SDS011;40925;45.666;18.994;2022-12-05T17:48:43;56.97;;;29.17;;
55025;SDS011;40925;45.666;18.994;2022-12-05T17:51:09;53.35;;;29.35;;
55025;SDS011;40925;45.666;18.994;2022-12-05T17:53:37;60.72;;;30.02;;
55025;SDS011;40925;45.666;18.994;2022-12-05T17:56:03;53.30;;;29.00;;
55025;SDS011;40925;45.666;18.994;2022-12-05T17:58:29;51.72;;;28.63;;
55025;SDS011;40925;45.666;18.994;2022-12-05T18:00:55;53.38;;;28.60;;
55025;SDS011;40925;45.666;18.994;2022-12-05T18:03:21;53.92;;;28.70;;
55025;SDS011;40925;45.666;18.994;2022-12-05T18:05:47;55.17;;;29.33;;
55025;SDS011;40925;45.666;18.994;2022-12-05T18:08:14;56.47;;;29.35;;
55025;SDS011;40925;45.666;18.994;2022-12-05T18:10:41;62.95;;;34.70;;
55025;SDS011;40925;45.666;18.994;2022-12-05T18:13:08;61.42;;;32.75;;
55025;SDS011;40925;45.666;18.994;2022-12-05T18:15:34;49.40;;;28.13;;
55025;SDS011;40925;45.666;18.994;2022-12-05T18:18:00;63.58;;;35.20;;
55025;SDS011;40925;45.666;18.994;2022-12-05T18:20:31;68.93;;;36.03;;